createdAt,value
2023-02-27T00:00:03.089Z,1025.32
2023-02-27T00:00:12.376Z,1025.31
2023-02-27T00:00:21.719Z,1025.35
2023-02-27T00:00:30.931Z,1025.32
2023-02-27T00:00:40.215Z,1025.24
2023-02-27T00:00:49.498Z,1025.24
2023-02-27T00:00:58.860Z,1025.39
2023-02-27T00:01:08.141Z,1025.36
2023-02-27T00:01:17.433Z,1025.27
2023-02-27T00:01:27.022Z,1025.21
2023-02-27T00:01:36.001Z,1025.31
2023-02-27T00:01:45.300Z,1025.31
2023-02-27T00:02:03.886Z,1025.25
2023-02-27T00:02:13.160Z,1025.35
2023-02-27T00:02:22.490Z,1025.35
2023-02-27T00:02:31.743Z,1025.29
2023-02-27T00:02:41.080Z,1025.33
2023-02-27T00:02:50.323Z,1025.33
2023-02-27T00:02:59.658Z,1025.35
2023-02-27T00:03:08.875Z,1025.37
2023-02-27T00:03:18.135Z,1025.29
2023-02-27T00:03:27.515Z,1025.35
2023-02-27T00:03:36.735Z,1025.33
2023-02-27T00:03:46.017Z,1025.35
2023-02-27T00:03:55.443Z,1025.39
2023-02-27T00:04:13.949Z,1025.35
2023-02-27T00:04:23.215Z,1025.37
2023-02-27T00:04:32.502Z,1025.33
2023-02-27T00:04:41.789Z,1025.34
2023-02-27T00:04:51.078Z,1025.35
2023-02-27T00:05:00.380Z,1025.37
2023-02-27T00:05:09.675Z,1025.34
2023-02-27T00:05:18.960Z,1025.33
2023-02-27T00:05:28.271Z,1025.37
2023-02-27T00:05:37.619Z,1025.37
2023-02-27T00:05:46.893Z,1025.32
2023-02-27T00:05:56.170Z,1025.32
2023-02-27T00:06:05.561Z,1025.35
2023-02-27T00:06:24.138Z,1025.33
2023-02-27T00:06:33.397Z,1025.37
2023-02-27T00:06:42.687Z,1025.37
2023-02-27T00:06:51.978Z,1025.36
2023-02-27T00:07:01.257Z,1025.38
2023-02-27T00:07:10.512Z,1025.35
2023-02-27T00:07:19.819Z,1025.34
2023-02-27T00:07:29.115Z,1025.44
2023-02-27T00:07:38.408Z,1025.31
2023-02-27T00:07:47.698Z,1025.40
2023-02-27T00:07:56.985Z,1025.39
2023-02-27T00:08:06.284Z,1025.41
2023-02-27T00:08:15.577Z,1025.40
2023-02-27T00:08:34.220Z,1025.37
2023-02-27T00:08:43.580Z,1025.40
2023-02-27T00:08:52.819Z,1025.42
2023-02-27T00:09:02.147Z,1025.44
2023-02-27T00:09:11.366Z,1025.41
2023-02-27T00:09:20.804Z,1025.41
2023-02-27T00:09:30.110Z,1025.37
2023-02-27T00:09:39.390Z,1025.48
2023-02-27T00:09:48.666Z,1025.39
2023-02-27T00:09:57.964Z,1025.42
2023-02-27T00:10:07.247Z,1025.42
2023-02-27T00:10:16.528Z,1025.40
2023-02-27T00:10:25.821Z,1025.40
2023-02-27T00:10:44.424Z,1025.40
2023-02-27T00:10:53.693Z,1025.47
2023-02-27T00:11:02.983Z,1025.39
2023-02-27T00:11:12.305Z,1025.44
2023-02-27T00:11:21.592Z,1025.37
2023-02-27T00:11:30.880Z,1025.44
2023-02-27T00:11:40.168Z,1025.41
2023-02-27T00:11:49.481Z,1025.43
2023-02-27T00:11:58.777Z,1025.47
2023-02-27T00:12:08.075Z,1025.41
2023-02-27T00:12:17.370Z,1025.43
2023-02-27T00:12:26.656Z,1025.43
2023-02-27T00:12:35.957Z,1025.40
2023-02-27T00:12:54.528Z,1025.38
2023-02-27T00:13:03.813Z,1025.43
2023-02-27T00:13:13.105Z,1025.43
2023-02-27T00:13:22.397Z,1025.43
2023-02-27T00:13:31.680Z,1025.43
2023-02-27T00:13:40.979Z,1025.46
2023-02-27T00:13:50.305Z,1025.46
2023-02-27T00:13:59.605Z,1025.48
2023-02-27T00:14:08.891Z,1025.47
2023-02-27T00:14:18.197Z,1025.41
2023-02-27T00:14:27.506Z,1025.48
2023-02-27T00:14:36.791Z,1025.49
2023-02-27T00:14:46.084Z,1025.44
2023-02-27T00:14:55.391Z,1025.40
2023-02-27T00:15:13.970Z,1025.52
2023-02-27T00:15:23.260Z,1025.45
2023-02-27T00:15:32.537Z,1025.50
2023-02-27T00:15:41.952Z,1025.41
2023-02-27T00:15:51.175Z,1025.45
2023-02-27T00:16:00.452Z,1025.51
2023-02-27T00:16:11.881Z,1025.52
2023-02-27T00:16:19.329Z,1025.45
2023-02-27T00:16:28.555Z,1025.45
2023-02-27T00:16:37.798Z,1025.50
2023-02-27T00:16:47.085Z,1025.45
2023-02-27T00:16:56.400Z,1025.48
2023-02-27T00:17:05.689Z,1025.43
2023-02-27T00:17:24.316Z,1025.50
2023-02-27T00:17:33.609Z,1025.45
2023-02-27T00:17:42.891Z,1025.51
2023-02-27T00:17:52.170Z,1025.47
2023-02-27T00:18:01.480Z,1025.52
2023-02-27T00:18:10.798Z,1025.50
2023-02-27T00:18:20.035Z,1025.48
2023-02-27T00:18:29.308Z,1025.52
2023-02-27T00:18:38.600Z,1025.50
2023-02-27T00:18:47.887Z,1025.49
2023-02-27T00:18:57.174Z,1025.42
2023-02-27T00:19:06.465Z,1025.49
2023-02-27T00:19:15.741Z,1025.44
2023-02-27T00:19:34.325Z,1025.43
2023-02-27T00:19:43.597Z,1025.49
2023-02-27T00:19:52.894Z,1025.49
2023-02-27T00:20:02.192Z,1025.52
2023-02-27T00:20:11.470Z,1025.50
2023-02-27T00:20:20.770Z,1025.55
2023-02-27T00:20:30.056Z,1025.50
2023-02-27T00:20:39.347Z,1025.47
2023-02-27T00:20:48.678Z,1025.52
2023-02-27T00:20:57.944Z,1025.52
2023-02-27T00:21:07.239Z,1025.52
2023-02-27T00:21:16.534Z,1025.49
2023-02-27T00:21:26.250Z,1025.54
2023-02-27T00:21:44.462Z,1025.46
2023-02-27T00:21:53.750Z,1025.50
2023-02-27T00:22:03.028Z,1025.55
2023-02-27T00:22:12.306Z,1025.49
2023-02-27T00:22:21.604Z,1025.48
2023-02-27T00:22:30.915Z,1025.48
2023-02-27T00:22:40.202Z,1025.53
2023-02-27T00:22:49.512Z,1025.48
2023-02-27T00:22:58.805Z,1025.50
2023-02-27T00:23:08.094Z,1025.55
2023-02-27T00:23:17.396Z,1025.52
2023-02-27T00:23:26.667Z,1025.54
2023-02-27T00:23:35.968Z,1025.53
2023-02-27T00:23:45.261Z,1025.59
2023-02-27T00:24:03.829Z,1025.55
2023-02-27T00:24:13.130Z,1025.51
2023-02-27T00:24:22.423Z,1025.54
2023-02-27T00:24:31.706Z,1025.56
2023-02-27T00:24:40.998Z,1025.47
2023-02-27T00:24:50.290Z,1025.57
2023-02-27T00:24:59.557Z,1025.54
2023-02-27T00:25:08.852Z,1025.51
2023-02-27T00:25:18.125Z,1025.56
2023-02-27T00:25:27.416Z,1025.58
2023-02-27T00:25:36.714Z,1025.61
2023-02-27T00:25:46.027Z,1025.56
2023-02-27T00:25:55.316Z,1025.57
2023-02-27T00:26:13.884Z,1025.59
2023-02-27T00:26:23.178Z,1025.56
2023-02-27T00:26:32.478Z,1025.55
2023-02-27T00:26:41.833Z,1025.54
2023-02-27T00:26:51.145Z,1025.55
2023-02-27T00:27:00.419Z,1025.60
2023-02-27T00:27:09.716Z,1025.56
2023-02-27T00:27:19.008Z,1025.55
2023-02-27T00:27:28.316Z,1025.58
2023-02-27T00:27:37.594Z,1025.56
2023-02-27T00:27:46.867Z,1025.54
2023-02-27T00:27:56.165Z,1025.56
2023-02-27T00:28:05.490Z,1025.60
2023-02-27T00:28:24.101Z,1025.53
2023-02-27T00:28:33.422Z,1025.57
2023-02-27T00:28:42.684Z,1025.59
2023-02-27T00:28:51.962Z,1025.60
2023-02-27T00:29:01.255Z,1025.55
2023-02-27T00:29:10.540Z,1025.60
2023-02-27T00:29:19.844Z,1025.62
2023-02-27T00:29:29.121Z,1025.59
2023-02-27T00:29:38.404Z,1025.65
2023-02-27T00:29:47.700Z,1025.57
2023-02-27T00:29:57.011Z,1025.62
2023-02-27T00:30:06.301Z,1025.57
2023-02-27T00:30:15.599Z,1025.61
2023-02-27T00:30:34.166Z,1025.56
2023-02-27T00:30:43.476Z,1025.60
2023-02-27T00:30:52.756Z,1025.60
2023-02-27T00:31:02.103Z,1025.59
2023-02-27T00:31:11.449Z,1025.58
2023-02-27T00:31:20.632Z,1025.62
2023-02-27T00:31:30.193Z,1025.57
2023-02-27T00:31:39.243Z,1025.63
2023-02-27T00:31:48.515Z,1025.56
2023-02-27T00:31:57.863Z,1025.58
2023-02-27T00:32:07.273Z,1025.48
2023-02-27T00:32:16.400Z,1025.58
2023-02-27T00:32:25.723Z,1025.57
2023-02-27T00:32:37.977Z,1025.65
2023-02-27T00:32:47.269Z,1025.60
2023-02-27T00:32:56.642Z,1025.51
2023-02-27T00:33:05.923Z,1025.55
2023-02-27T00:33:24.527Z,1025.63
2023-02-27T00:33:33.812Z,1025.63
2023-02-27T00:33:43.103Z,1025.55
2023-02-27T00:33:52.391Z,1025.61
2023-02-27T00:34:01.691Z,1025.62
2023-02-27T00:34:10.972Z,1025.57
2023-02-27T00:34:20.265Z,1025.58
2023-02-27T00:34:29.557Z,1025.60
2023-02-27T00:34:38.886Z,1025.58
2023-02-27T00:34:48.170Z,1025.55
2023-02-27T00:34:57.465Z,1025.60
2023-02-27T00:35:06.748Z,1025.55
2023-02-27T00:35:16.024Z,1025.54
2023-02-27T00:35:25.305Z,1025.56
2023-02-27T00:35:43.884Z,1025.54
2023-02-27T00:35:53.183Z,1025.57
2023-02-27T00:36:02.480Z,1025.60
2023-02-27T00:36:11.761Z,1025.54
2023-02-27T00:36:21.072Z,1025.53
2023-02-27T00:36:30.403Z,1025.49
2023-02-27T00:36:39.655Z,1025.50
2023-02-27T00:36:48.945Z,1025.54
2023-02-27T00:36:58.244Z,1025.59
2023-02-27T00:37:07.546Z,1025.51
2023-02-27T00:37:16.834Z,1025.50
2023-02-27T00:37:26.122Z,1025.55
2023-02-27T00:37:35.442Z,1025.62
2023-02-27T00:37:54.073Z,1025.53
2023-02-27T00:38:03.337Z,1025.56
2023-02-27T00:38:12.617Z,1025.55
2023-02-27T00:38:21.909Z,1025.56
2023-02-27T00:38:31.206Z,1025.52
2023-02-27T00:38:40.475Z,1025.50
2023-02-27T00:38:49.788Z,1025.54
2023-02-27T00:38:59.080Z,1025.54
2023-02-27T00:39:08.381Z,1025.52
2023-02-27T00:39:17.662Z,1025.54
2023-02-27T00:39:26.966Z,1025.53
2023-02-27T00:39:36.264Z,1025.47
2023-02-27T00:39:45.562Z,1025.53
2023-02-27T00:40:04.166Z,1025.53
2023-02-27T00:40:13.466Z,1025.52
2023-02-27T00:40:22.773Z,1025.52
2023-02-27T00:40:32.053Z,1025.52
2023-02-27T00:40:41.343Z,1025.54
2023-02-27T00:40:50.634Z,1025.55
2023-02-27T00:40:59.939Z,1025.54
2023-02-27T00:41:09.234Z,1025.55
2023-02-27T00:41:18.524Z,1025.55
2023-02-27T00:41:28.129Z,1025.50
2023-02-27T00:41:37.150Z,1025.47
2023-02-27T00:41:46.462Z,1025.50
2023-02-27T00:41:55.755Z,1025.59
2023-02-27T00:42:14.323Z,1025.47
2023-02-27T00:42:23.633Z,1025.50
2023-02-27T00:42:32.926Z,1025.51
2023-02-27T00:42:42.214Z,1025.52
2023-02-27T00:42:51.487Z,1025.52
2023-02-27T00:43:00.820Z,1025.56
2023-02-27T00:43:10.093Z,1025.55
2023-02-27T00:43:19.382Z,1025.50
2023-02-27T00:43:28.669Z,1025.51
2023-02-27T00:43:37.953Z,1025.50
2023-02-27T00:43:47.246Z,1025.51
2023-02-27T00:43:56.537Z,1025.52
2023-02-27T00:44:05.829Z,1025.53
2023-02-27T00:44:24.404Z,1025.51
2023-02-27T00:44:33.677Z,1025.54
2023-02-27T00:44:42.983Z,1025.49
2023-02-27T00:44:52.290Z,1025.53
2023-02-27T00:45:01.574Z,1025.50
2023-02-27T00:45:10.856Z,1025.54
2023-02-27T00:45:20.190Z,1025.57
2023-02-27T00:45:29.446Z,1025.52
2023-02-27T00:45:38.737Z,1025.52
2023-02-27T00:45:48.029Z,1025.57
2023-02-27T00:45:57.335Z,1025.52
2023-02-27T00:46:06.643Z,1025.61
2023-02-27T00:46:15.963Z,1025.51
2023-02-27T00:46:34.604Z,1025.53
2023-02-27T00:46:43.914Z,1025.50
2023-02-27T00:46:53.207Z,1025.55
2023-02-27T00:47:02.457Z,1025.56
2023-02-27T00:47:11.776Z,1025.54
2023-02-27T00:47:21.145Z,1025.57
2023-02-27T00:47:30.419Z,1025.55
2023-02-27T00:47:39.681Z,1025.57
2023-02-27T00:47:48.966Z,1025.52
2023-02-27T00:47:58.253Z,1025.60
2023-02-27T00:48:07.540Z,1025.51
2023-02-27T00:48:16.843Z,1025.55
2023-02-27T00:48:26.145Z,1025.58
2023-02-27T00:48:35.438Z,1025.55
2023-02-27T00:48:54.002Z,1025.58
2023-02-27T00:49:03.275Z,1025.61
2023-02-27T00:49:12.558Z,1025.56
2023-02-27T00:49:21.842Z,1025.57
2023-02-27T00:49:31.123Z,1025.62
2023-02-27T00:49:40.406Z,1025.62
2023-02-27T00:49:49.691Z,1025.62
2023-02-27T00:49:58.964Z,1025.57
2023-02-27T00:50:08.250Z,1025.58
2023-02-27T00:50:17.553Z,1025.60
2023-02-27T00:50:26.829Z,1025.65
2023-02-27T00:50:36.114Z,1025.63
2023-02-27T00:50:45.402Z,1025.63
2023-02-27T00:51:03.979Z,1025.62
2023-02-27T00:51:13.252Z,1025.62
2023-02-27T00:51:22.523Z,1025.61
2023-02-27T00:51:31.831Z,1025.60
2023-02-27T00:51:41.163Z,1025.57
2023-02-27T00:51:50.435Z,1025.62
2023-02-27T00:51:59.710Z,1025.62
2023-02-27T00:52:08.986Z,1025.64
2023-02-27T00:52:18.263Z,1025.67
2023-02-27T00:52:27.550Z,1025.62
2023-02-27T00:52:36.857Z,1025.63
2023-02-27T00:52:46.135Z,1025.57
2023-02-27T00:52:55.442Z,1025.60
2023-02-27T00:53:14.045Z,1025.64
2023-02-27T00:53:23.338Z,1025.64
2023-02-27T00:53:32.652Z,1025.65
2023-02-27T00:53:41.949Z,1025.62
2023-02-27T00:53:51.245Z,1025.69
2023-02-27T00:54:00.555Z,1025.68
2023-02-27T00:54:09.848Z,1025.59
2023-02-27T00:54:19.139Z,1025.64
2023-02-27T00:54:28.446Z,1025.63
2023-02-27T00:54:37.710Z,1025.64
2023-02-27T00:54:47.012Z,1025.57
2023-02-27T00:54:56.293Z,1025.75
2023-02-27T00:55:05.584Z,1025.68
2023-02-27T00:55:25.808Z,1025.65
2023-02-27T00:55:33.435Z,1025.65
2023-02-27T00:55:42.735Z,1025.63
2023-02-27T00:55:52.019Z,1025.68
2023-02-27T00:56:01.311Z,1025.67
2023-02-27T00:56:10.616Z,1025.67
2023-02-27T00:56:19.902Z,1025.68
2023-02-27T00:56:29.186Z,1025.63
2023-02-27T00:56:38.501Z,1025.65
2023-02-27T00:56:47.795Z,1025.65
2023-02-27T00:56:57.075Z,1025.65
2023-02-27T00:57:06.397Z,1025.65
2023-02-27T00:57:15.727Z,1025.67
2023-02-27T00:57:34.278Z,1025.70
2023-02-27T00:57:43.573Z,1025.72
2023-02-27T00:57:52.857Z,1025.71
2023-02-27T00:58:02.102Z,1025.71
2023-02-27T00:58:11.402Z,1025.73
2023-02-27T00:58:20.683Z,1025.65
2023-02-27T00:58:29.959Z,1025.60
2023-02-27T00:58:39.238Z,1025.69
2023-02-27T00:58:48.507Z,1025.65
2023-02-27T00:58:57.780Z,1025.67
2023-02-27T00:59:07.054Z,1025.64
2023-02-27T00:59:16.338Z,1025.64
2023-02-27T00:59:25.624Z,1025.70
2023-02-27T00:59:44.208Z,1025.67
2023-02-27T00:59:53.500Z,1025.70
2023-02-27T01:00:02.762Z,1025.65
2023-02-27T01:00:12.052Z,1025.72
2023-02-27T01:00:21.382Z,1025.65
2023-02-27T01:00:30.736Z,1025.66
2023-02-27T01:00:40.073Z,1025.67
2023-02-27T01:00:49.354Z,1025.65
2023-02-27T01:00:58.706Z,1025.66
2023-02-27T01:01:07.889Z,1025.67
2023-02-27T01:01:17.183Z,1025.68
2023-02-27T01:01:26.846Z,1025.67
2023-02-27T01:01:35.747Z,1025.62
2023-02-27T01:01:54.331Z,1025.72
2023-02-27T01:02:03.635Z,1025.68
2023-02-27T01:02:13.002Z,1025.74
2023-02-27T01:02:22.314Z,1025.68
2023-02-27T01:02:31.496Z,1025.70
2023-02-27T01:02:40.820Z,1025.70
2023-02-27T01:02:50.102Z,1025.64
2023-02-27T01:02:59.329Z,1025.66
2023-02-27T01:03:08.617Z,1025.69
2023-02-27T01:03:17.943Z,1025.63
2023-02-27T01:03:27.245Z,1025.67
2023-02-27T01:03:36.555Z,1025.70
2023-02-27T01:03:45.836Z,1025.70
2023-02-27T01:04:04.426Z,1025.74
2023-02-27T01:04:13.705Z,1025.67
2023-02-27T01:04:22.999Z,1025.62
2023-02-27T01:04:32.290Z,1025.69
2023-02-27T01:04:41.579Z,1025.68
2023-02-27T01:04:50.859Z,1025.69
2023-02-27T01:05:00.142Z,1025.65
2023-02-27T01:05:09.419Z,1025.70
2023-02-27T01:05:18.713Z,1025.74
2023-02-27T01:05:28.015Z,1025.70
2023-02-27T01:05:37.296Z,1025.65
2023-02-27T01:05:46.595Z,1025.72
2023-02-27T01:05:55.886Z,1025.63
2023-02-27T01:06:14.464Z,1025.70
2023-02-27T01:06:23.750Z,1025.65
2023-02-27T01:06:33.100Z,1025.66
2023-02-27T01:06:42.490Z,1025.71
2023-02-27T01:06:51.872Z,1025.68
2023-02-27T01:07:01.149Z,1025.71
2023-02-27T01:07:10.426Z,1025.65
2023-02-27T01:07:19.707Z,1025.68
2023-02-27T01:07:28.986Z,1025.68
2023-02-27T01:07:38.275Z,1025.72
2023-02-27T01:07:47.538Z,1025.65
2023-02-27T01:07:56.818Z,1025.67
2023-02-27T01:08:06.124Z,1025.72
2023-02-27T01:08:15.408Z,1025.68
2023-02-27T01:08:34.022Z,1025.65
2023-02-27T01:08:43.316Z,1025.72
2023-02-27T01:08:52.632Z,1025.64
2023-02-27T01:09:01.916Z,1025.64
2023-02-27T01:09:11.209Z,1025.64
2023-02-27T01:09:20.517Z,1025.74
2023-02-27T01:09:29.814Z,1025.72
2023-02-27T01:09:39.085Z,1025.67
2023-02-27T01:09:48.383Z,1025.76
2023-02-27T01:09:57.671Z,1025.66
2023-02-27T01:10:06.975Z,1025.65
2023-02-27T01:10:16.261Z,1025.72
2023-02-27T01:10:25.569Z,1025.64
2023-02-27T01:10:44.121Z,1025.68
2023-02-27T01:10:53.409Z,1025.71
2023-02-27T01:11:02.707Z,1025.68
2023-02-27T01:11:11.994Z,1025.69
2023-02-27T01:11:21.271Z,1025.68
2023-02-27T01:11:30.559Z,1025.68
2023-02-27T01:11:39.829Z,1025.72
2023-02-27T01:11:49.177Z,1025.64
2023-02-27T01:11:58.421Z,1025.70
2023-02-27T01:12:07.700Z,1025.70
2023-02-27T01:12:17.000Z,1025.74
2023-02-27T01:12:26.284Z,1025.71
2023-02-27T01:12:35.572Z,1025.67
2023-02-27T01:12:54.153Z,1025.64
2023-02-27T01:13:03.437Z,1025.72
2023-02-27T01:13:12.720Z,1025.67
2023-02-27T01:13:22.010Z,1025.72
2023-02-27T01:13:31.306Z,1025.67
2023-02-27T01:13:40.603Z,1025.70
2023-02-27T01:13:49.885Z,1025.68
2023-02-27T01:13:59.174Z,1025.69
2023-02-27T01:14:08.465Z,1025.69
2023-02-27T01:14:17.773Z,1025.69
2023-02-27T01:14:27.073Z,1025.68
2023-02-27T01:14:36.337Z,1025.65
2023-02-27T01:14:45.628Z,1025.68
2023-02-27T01:15:04.208Z,1025.65
2023-02-27T01:15:13.485Z,1025.63
2023-02-27T01:15:22.769Z,1025.69
2023-02-27T01:15:32.077Z,1025.63
2023-02-27T01:15:41.357Z,1025.71
2023-02-27T01:15:50.647Z,1025.74
2023-02-27T01:15:59.965Z,1025.65
2023-02-27T01:16:09.241Z,1025.65
2023-02-27T01:16:18.572Z,1025.67
2023-02-27T01:16:27.849Z,1025.70
2023-02-27T01:16:37.254Z,1025.72
2023-02-27T01:16:46.432Z,1025.70
2023-02-27T01:16:55.719Z,1025.72
2023-02-27T01:17:14.294Z,1025.73
2023-02-27T01:17:23.576Z,1025.67
2023-02-27T01:17:32.863Z,1025.65
2023-02-27T01:17:42.134Z,1025.64
2023-02-27T01:17:51.410Z,1025.69
2023-02-27T01:18:00.685Z,1025.65
2023-02-27T01:18:09.959Z,1025.67
2023-02-27T01:18:19.272Z,1025.69
2023-02-27T01:18:28.559Z,1025.65
2023-02-27T01:18:37.848Z,1025.69
2023-02-27T01:18:47.128Z,1025.69
2023-02-27T01:18:56.428Z,1025.73
2023-02-27T01:19:05.693Z,1025.70
2023-02-27T01:19:24.255Z,1025.70
2023-02-27T01:19:33.565Z,1025.67
2023-02-27T01:19:42.857Z,1025.68
2023-02-27T01:19:52.136Z,1025.63
2023-02-27T01:20:01.421Z,1025.68
2023-02-27T01:20:10.694Z,1025.64
2023-02-27T01:20:19.970Z,1025.67
2023-02-27T01:20:29.235Z,1025.69
2023-02-27T01:20:38.516Z,1025.67
2023-02-27T01:20:47.796Z,1025.68
2023-02-27T01:20:57.079Z,1025.65
2023-02-27T01:21:06.370Z,1025.67
2023-02-27T01:21:15.657Z,1025.64
2023-02-27T01:21:34.223Z,1025.68
2023-02-27T01:21:43.509Z,1025.62
2023-02-27T01:21:52.845Z,1025.67
2023-02-27T01:22:02.125Z,1025.62
2023-02-27T01:22:11.374Z,1025.58
2023-02-27T01:22:20.712Z,1025.69
2023-02-27T01:22:29.988Z,1025.68
2023-02-27T01:22:39.285Z,1025.59
2023-02-27T01:22:48.575Z,1025.66
2023-02-27T01:22:57.851Z,1025.67
2023-02-27T01:23:07.140Z,1025.63
2023-02-27T01:23:16.400Z,1025.65
2023-02-27T01:23:25.687Z,1025.67
2023-02-27T01:23:44.273Z,1025.65
2023-02-27T01:23:53.597Z,1025.62
2023-02-27T01:24:02.864Z,1025.67
2023-02-27T01:24:12.150Z,1025.67
2023-02-27T01:24:21.443Z,1025.67
2023-02-27T01:24:30.724Z,1025.66
2023-02-27T01:24:40.015Z,1025.60
2023-02-27T01:24:49.291Z,1025.64
2023-02-27T01:24:58.586Z,1025.62
2023-02-27T01:25:07.873Z,1025.64
2023-02-27T01:25:17.160Z,1025.62
2023-02-27T01:25:26.447Z,1025.68
2023-02-27T01:25:35.744Z,1025.65
2023-02-27T01:25:54.323Z,1025.69
2023-02-27T01:26:03.610Z,1025.64
2023-02-27T01:26:12.936Z,1025.62
2023-02-27T01:26:22.217Z,1025.65
2023-02-27T01:26:31.505Z,1025.68
2023-02-27T01:26:40.797Z,1025.59
2023-02-27T01:26:50.102Z,1025.65
2023-02-27T01:26:59.383Z,1025.64
2023-02-27T01:27:08.666Z,1025.66
2023-02-27T01:27:17.953Z,1025.67
2023-02-27T01:27:27.237Z,1025.73
2023-02-27T01:27:36.513Z,1025.57
2023-02-27T01:27:45.806Z,1025.68
2023-02-27T01:28:04.356Z,1025.68
2023-02-27T01:28:13.627Z,1025.72
2023-02-27T01:28:22.906Z,1025.64
2023-02-27T01:28:32.200Z,1025.60
2023-02-27T01:28:41.486Z,1025.64
2023-02-27T01:28:50.739Z,1025.70
2023-02-27T01:29:00.033Z,1025.65
2023-02-27T01:29:09.330Z,1025.66
2023-02-27T01:29:18.615Z,1025.61
2023-02-27T01:29:27.896Z,1025.65
2023-02-27T01:29:37.175Z,1025.69
2023-02-27T01:29:46.459Z,1025.65
2023-02-27T01:29:55.746Z,1025.70
2023-02-27T01:30:14.326Z,1025.74
2023-02-27T01:30:23.637Z,1025.67
2023-02-27T01:30:32.909Z,1025.61
2023-02-27T01:30:42.283Z,1025.61
2023-02-27T01:30:51.492Z,1025.63
2023-02-27T01:31:00.803Z,1025.65
2023-02-27T01:31:10.039Z,1025.64
2023-02-27T01:31:19.370Z,1025.70
2023-02-27T01:31:29.141Z,1025.65
2023-02-27T01:31:37.915Z,1025.67
2023-02-27T01:31:47.311Z,1025.67
2023-02-27T01:31:56.576Z,1025.67
2023-02-27T01:32:05.890Z,1025.65
2023-02-27T01:32:24.495Z,1025.63
2023-02-27T01:32:33.715Z,1025.68
2023-02-27T01:32:42.985Z,1025.59
2023-02-27T01:32:52.191Z,1025.68
2023-02-27T01:33:01.464Z,1025.67
2023-02-27T01:33:10.763Z,1025.65
2023-02-27T01:33:20.036Z,1025.60
2023-02-27T01:33:29.340Z,1025.69
2023-02-27T01:33:38.609Z,1025.68
2023-02-27T01:33:47.889Z,1025.62
2023-02-27T01:33:57.179Z,1025.67
2023-02-27T01:34:06.469Z,1025.66
2023-02-27T01:34:15.748Z,1025.67
2023-02-27T01:34:34.469Z,1025.64
2023-02-27T01:34:43.622Z,1025.67
2023-02-27T01:34:52.908Z,1025.68
2023-02-27T01:35:02.186Z,1025.68
2023-02-27T01:35:11.470Z,1025.67
2023-02-27T01:35:20.763Z,1025.64
2023-02-27T01:35:30.058Z,1025.68
2023-02-27T01:35:39.355Z,1025.68
2023-02-27T01:35:48.634Z,1025.69
2023-02-27T01:35:57.916Z,1025.68
2023-02-27T01:36:07.213Z,1025.66
2023-02-27T01:36:16.506Z,1025.65
2023-02-27T01:36:25.793Z,1025.69
2023-02-27T01:36:44.397Z,1025.61
2023-02-27T01:36:53.709Z,1025.72
2023-02-27T01:37:03.005Z,1025.69
2023-02-27T01:37:12.336Z,1025.61
2023-02-27T01:37:21.625Z,1025.68
2023-02-27T01:37:30.921Z,1025.63
2023-02-27T01:37:40.247Z,1025.67
2023-02-27T01:37:49.527Z,1025.67
2023-02-27T01:37:58.891Z,1025.56
2023-02-27T01:38:08.195Z,1025.70
2023-02-27T01:38:17.480Z,1025.66
2023-02-27T01:38:26.809Z,1025.65
2023-02-27T01:38:36.076Z,1025.64
2023-02-27T01:38:45.361Z,1025.67
2023-02-27T01:39:03.950Z,1025.64
2023-02-27T01:39:13.201Z,1025.67
2023-02-27T01:39:22.498Z,1025.64
2023-02-27T01:39:31.773Z,1025.63
2023-02-27T01:39:41.042Z,1025.66
2023-02-27T01:39:50.320Z,1025.69
2023-02-27T01:39:59.587Z,1025.61
2023-02-27T01:40:08.874Z,1025.60
2023-02-27T01:40:18.152Z,1025.63
2023-02-27T01:40:27.423Z,1025.60
2023-02-27T01:40:36.703Z,1025.67
2023-02-27T01:40:45.982Z,1025.65
2023-02-27T01:41:04.551Z,1025.61
2023-02-27T01:41:13.848Z,1025.72
2023-02-27T01:41:23.128Z,1025.64
2023-02-27T01:41:32.417Z,1025.63
2023-02-27T01:41:41.708Z,1025.64
2023-02-27T01:41:50.990Z,1025.57
2023-02-27T01:42:00.292Z,1025.67
2023-02-27T01:42:09.582Z,1025.64
2023-02-27T01:42:18.865Z,1025.59
2023-02-27T01:42:28.151Z,1025.61
2023-02-27T01:42:37.431Z,1025.66
2023-02-27T01:42:46.718Z,1025.65
2023-02-27T01:42:56.002Z,1025.57
2023-02-27T01:43:05.285Z,1025.64
2023-02-27T01:43:23.896Z,1025.59
2023-02-27T01:43:33.184Z,1025.66
2023-02-27T01:43:42.458Z,1025.61
2023-02-27T01:43:51.761Z,1025.68
2023-02-27T01:44:01.062Z,1025.64
2023-02-27T01:44:10.365Z,1025.63
2023-02-27T01:44:19.647Z,1025.61
2023-02-27T01:44:28.945Z,1025.60
2023-02-27T01:44:38.274Z,1025.72
2023-02-27T01:44:47.563Z,1025.64
2023-02-27T01:44:56.848Z,1025.68
2023-02-27T01:45:06.152Z,1025.60
2023-02-27T01:45:15.445Z,1025.61
2023-02-27T01:45:34.076Z,1025.63
2023-02-27T01:45:43.354Z,1025.64
2023-02-27T01:45:52.671Z,1025.66
2023-02-27T01:46:02.021Z,1025.66
2023-02-27T01:46:11.255Z,1025.60
2023-02-27T01:46:20.540Z,1025.63
2023-02-27T01:46:29.792Z,1025.60
2023-02-27T01:46:39.057Z,1025.63
2023-02-27T01:46:48.350Z,1025.63
2023-02-27T01:46:57.662Z,1025.64
2023-02-27T01:47:06.960Z,1025.63
2023-02-27T01:47:16.238Z,1025.57
2023-02-27T01:47:25.549Z,1025.67
2023-02-27T01:47:44.147Z,1025.72
2023-02-27T01:47:53.409Z,1025.64
2023-02-27T01:48:02.692Z,1025.63
2023-02-27T01:48:11.986Z,1025.65
2023-02-27T01:48:21.284Z,1025.65
2023-02-27T01:48:30.573Z,1025.61
2023-02-27T01:48:39.931Z,1025.58
2023-02-27T01:48:49.217Z,1025.52
2023-02-27T01:48:58.534Z,1025.59
2023-02-27T01:49:07.821Z,1025.66
2023-02-27T01:49:17.105Z,1025.64
2023-02-27T01:49:26.406Z,1025.66
2023-02-27T01:49:35.680Z,1025.67
2023-02-27T01:49:54.247Z,1025.68
2023-02-27T01:50:03.523Z,1025.68
2023-02-27T01:50:12.807Z,1025.65
2023-02-27T01:50:22.098Z,1025.60
2023-02-27T01:50:31.405Z,1025.56
2023-02-27T01:50:40.694Z,1025.69
2023-02-27T01:50:49.977Z,1025.63
2023-02-27T01:50:59.283Z,1025.61
2023-02-27T01:51:08.576Z,1025.56
2023-02-27T01:51:17.943Z,1025.59
2023-02-27T01:51:27.575Z,1025.63
2023-02-27T01:51:36.549Z,1025.67
2023-02-27T01:51:45.835Z,1025.66
2023-02-27T01:52:04.456Z,1025.63
2023-02-27T01:52:13.775Z,1025.72
2023-02-27T01:52:23.084Z,1025.66
2023-02-27T01:52:32.343Z,1025.67
2023-02-27T01:52:41.633Z,1025.70
2023-02-27T01:52:50.913Z,1025.69
2023-02-27T01:53:00.203Z,1025.65
2023-02-27T01:53:09.502Z,1025.62
2023-02-27T01:53:18.775Z,1025.66
2023-02-27T01:53:28.058Z,1025.65
2023-02-27T01:53:37.340Z,1025.62
2023-02-27T01:53:46.652Z,1025.66
2023-02-27T01:53:55.952Z,1025.66
2023-02-27T01:54:14.522Z,1025.65
2023-02-27T01:54:23.834Z,1025.61
2023-02-27T01:54:33.084Z,1025.69
2023-02-27T01:54:42.384Z,1025.74
2023-02-27T01:54:51.665Z,1025.73
2023-02-27T01:55:00.951Z,1025.74
2023-02-27T01:55:10.222Z,1025.65
2023-02-27T01:55:19.509Z,1025.66
2023-02-27T01:55:28.797Z,1025.62
2023-02-27T01:55:38.101Z,1025.73
2023-02-27T01:55:47.391Z,1025.63
2023-02-27T01:55:56.670Z,1025.63
2023-02-27T01:56:05.961Z,1025.63
2023-02-27T01:56:24.527Z,1025.63
2023-02-27T01:56:33.825Z,1025.63
2023-02-27T01:56:43.113Z,1025.71
2023-02-27T01:56:52.412Z,1025.66
2023-02-27T01:57:01.724Z,1025.64
2023-02-27T01:57:11.024Z,1025.69
2023-02-27T01:57:20.294Z,1025.69
2023-02-27T01:57:29.586Z,1025.65
2023-02-27T01:57:38.866Z,1025.65
2023-02-27T01:57:48.153Z,1025.76
2023-02-27T01:57:57.436Z,1025.65
2023-02-27T01:58:06.713Z,1025.64
2023-02-27T01:58:16.001Z,1025.67
2023-02-27T01:58:25.287Z,1025.59
2023-02-27T01:58:43.853Z,1025.62
2023-02-27T01:58:53.138Z,1025.71
2023-02-27T01:59:02.409Z,1025.70
2023-02-27T01:59:11.688Z,1025.68
2023-02-27T01:59:20.985Z,1025.60
2023-02-27T01:59:30.249Z,1025.68
2023-02-27T01:59:39.556Z,1025.63
2023-02-27T01:59:48.849Z,1025.67
2023-02-27T01:59:58.270Z,1025.66
2023-02-27T02:00:07.579Z,1025.70
2023-02-27T02:00:16.877Z,1025.63
2023-02-27T02:00:26.163Z,1025.63
2023-02-27T02:00:35.463Z,1025.64
2023-02-27T02:00:54.130Z,1025.63